Impacts METAR Board
IDs:

KCVG - Cincinnati Intl, KY, US

Updated at: 1300 UTC 16 Sep 2019
Potential Impact None Slight Moderate High
Time 16/01Z 16/02Z 16/03Z 16/04Z 16/05Z 16/06Z 16/07Z 16/08Z 16/09Z 16/10Z 16/11Z 16/12Z 16/13Z
Temp79 79 77 71 68 69 73 72 72 71 71 70 76
Dewpt54 54 54 56 58 56 53 54 54 54 54 55 56
Altim30.09 30.09 30.10 30.09 30.09 30.08 30.07 30.07 30.07 30.07 30.08 30.09 30.09
VIS10 10 10 10 10 10 10 10 10 10 10 10 10
CIG-- 200 130 120 250 100 90 90 -- -- 130 -- 120
CoverSCTBKNBKNBKNBKNOVCOVCBKNSCTSCTBKNSCTBKN
FltCatVFRVFRVFRVFRVFRVFRVFRVFRVFRVFRVFRVFRVFR
WX--------------------------
WDir170150180190190190190200220220240200220
WSpd4 3 3 5 5 6 7 6 5 5 3 3 6
WGst-- -- -- -- -- -- -- -- -- -- -- -- --
Raw hourly METARs
KCVG 160052Z 17004KT 10SM FEW085 SCT120 26/12 A3009
KCVG 160152Z 15003KT 10SM SCT120 BKN200 26/12 A3009
KCVG 160252Z 18003KT 10SM BKN130 25/12 A3010 RMK AO2 SLP182 T02500122 51006 $
KCVG 160352Z 19005KT 10SM BKN120 BKN250 22/13 A3009 RMK AO2 SLP182 T02170133 $
KCVG 160452Z 19005KT 10SM FEW120 BKN250 20/14 A3009 RMK AO2 SLP179 T02000144 403110139 $
KCVG 160552Z 19006KT 10SM BKN100 BKN120 OVC250 21/13 A3008 RMK AO2 SLP177 T02060133 10261 20194 58005 $
KCVG 160652Z 19007KT 10SM BKN090 OVC110 23/12 A3007 RMK AO2 SLP173 BINOVC T02280117 $
KCVG 160752Z 20006KT 10SM BKN090 22/12 A3007 RMK AO2 SLP170 T02220122 $
KCVG 160852Z 22005KT 10SM SCT080 22/12 A3007 RMK AO2 SLP171 T02220122 55004 $
KCVG 160952Z 22005KT 10SM SCT070 22/12 A3007 RMK AO2 SLP170 T02170122 $
KCVG 161052Z 24003KT 10SM SCT065 BKN130 22/12 A3008 RMK AO2 SLP175 T02170122 $
KCVG 161152Z 20003KT 10SM FEW065 SCT130 21/13 A3009 RMK AO2 SLP180 T02110128 10228 20200 53006
KCVG 161252Z 22006KT 10SM SCT070 BKN120 24/13 A3009 RMK AO2 SLP180 VIS LWR SSW T02440133



Page loaded:  13:07 UTC  |   06:07 AM Pacific  |   07:07 AM Mountain  |   08:07 AM Central  |   09:07 AM Eastern

 

ADVISORIES

FORECASTS

FORECASTS

OBSERVATIONS

USER TOOLS

ABOUT US